Greenwood Leflore Airport
KGWO : now visible

Airfield :











YOU CAN JOIN US ON...

 
LOGIN :

Register | Disclaimer

   EN    FR    IT 

 









Legend :    VFR   Marginal VFR   IFR   Intensive IFR   Very Intensive IFR
Visi :
Ceiling :
>= 8 km
>= 3000ft
5 to 8 km
1000 to 3000 ft
1500m to 5 km
500 to 1000 ft
800 to 1500m
200 to 500 ft
< 800m
< 200 ft
Symbols :   Thunderstorms  Fog  Heavy snow  Heavy precipitations  Wind > 20 kt






- Airport Elevation : 162 ft


KGWO - Greenwood Leflore

CURRENT METAR :
  • 181107Z AUTO 17019G27KT 10SM FEW018 SCT033 OVC120 16/13 A3013 RMK AO2 PK WND 17027/1106 T01560128

EXPIRED METARs :
  • 181053Z AUTO 16017KT 10SM BKN018 BKN029 OVC034 16/13 A3013 RMK AO2 PK WND 17027/1033 PRESFR SLP200 T01560128
  • 181019Z AUTO 16015KT 10SM BKN020 BKN025 OVC030 17/13 A3015 RMK AO2 T01670133
  • 180953Z AUTO 17013KT 10SM SCT023 OVC032 17/13 A3015 RMK AO2 RAE11 SLP208 P0000 T01670133
  • 180853Z AUTO 17010KT 9SM -RA BKN022 OVC033 16/13 A3016 RMK AO2 RAB37 SLP212 P0005 60005 T01610133 56015

TAF KGWO
Valid from the 18 at 07:00 until the 19 at 06:00 UTC


180632Z 1807/1906 16012KT P6SM VCSH OVC040
FM181600 20013KT 6SM RA OVC008
FM181700 21013KT P6SM SHRA OVC013
FM182000 27010KT P6SM VCSH BKN027
FM182200 32010KT P6SM BKN040



MET'MAP, your aeronautical weather chart ! - Copyright ORBIFLY December 2007 - Disclaimer

ORBIFLY MET'MAP TEAM :

Programming & Development : Alexandra Zaïnal
Concept & original design : Baudouin d'Aumeries
Assistance for programming : Marc-Olivier Méhu
Technical & hardware support : Manuel Goepfert

Contact : metmap@orbifly.com




SOURCES & CREDITS :

   NOAA       Earth
Advisory